sensor_id;sensor_type;location;lat;lon;timestamp;P1;durP1;ratioP1;P2;durP2;ratioP2
57615;SDS011;43816;52.054;-9.494;2024-03-02T00:00:07;5.80;;;5.30;;
57615;SDS011;43816;52.054;-9.494;2024-03-02T00:00:18;5.70;;;5.20;;
57615;SDS011;43816;52.054;-9.494;2024-03-02T00:00:29;5.63;;;5.13;;
57615;SDS011;43816;52.054;-9.494;2024-03-02T00:00:39;5.72;;;5.18;;
57615;SDS011;43816;52.054;-9.494;2024-03-02T00:00:50;5.97;;;5.37;;
57615;SDS011;43816;52.054;-9.494;2024-03-02T00:01:01;6.05;;;5.45;;
57615;SDS011;43816;52.054;-9.494;2024-03-02T00:01:11;6.05;;;5.45;;
57615;SDS011;43816;52.054;-9.494;2024-03-02T00:01:21;5.93;;;5.40;;
57615;SDS011;43816;52.054;-9.494;2024-03-02T00:01:32;5.97;;;5.37;;
57615;SDS011;43816;52.054;-9.494;2024-03-02T00:01:42;5.60;;;5.10;;
57615;SDS011;43816;52.054;-9.494;2024-03-02T00:01:52;5.60;;;5.10;;
57615;SDS011;43816;52.054;-9.494;2024-03-02T00:02:03;5.43;;;5.00;;
57615;SDS011;43816;52.054;-9.494;2024-03-02T00:02:17;5.47;;;4.97;;
57615;SDS011;43816;52.054;-9.494;2024-03-02T00:02:30;5.57;;;5.00;;
57615;SDS011;43816;52.054;-9.494;2024-03-02T00:02:41;5.93;;;5.10;;
57615;SDS011;43816;52.054;-9.494;2024-03-02T00:02:52;5.65;;;5.10;;
57615;SDS011;43816;52.054;-9.494;2024-03-02T00:03:03;5.37;;;4.93;;
57615;SDS011;43816;52.054;-9.494;2024-03-02T00:03:13;5.38;;;4.97;;
57615;SDS011;43816;52.054;-9.494;2024-03-02T00:03:23;5.40;;;5.00;;
57615;SDS011;43816;52.054;-9.494;2024-03-02T00:03:34;5.47;;;4.97;;
57615;SDS011;43816;52.054;-9.494;2024-03-02T00:03:44;5.57;;;5.07;;
57615;SDS011;43816;52.054;-9.494;2024-03-02T00:03:54;5.60;;;5.10;;
57615;SDS011;43816;52.054;-9.494;2024-03-02T00:04:05;5.80;;;5.30;;
57615;SDS011;43816;52.054;-9.494;2024-03-02T00:04:17;6.00;;;5.45;;
57615;SDS011;43816;52.054;-9.494;2024-03-02T00:04:28;5.97;;;5.47;;
57615;SDS011;43816;52.054;-9.494;2024-03-02T00:04:38;5.80;;;5.30;;
57615;SDS011;43816;52.054;-9.494;2024-03-02T00:04:48;5.85;;;5.35;;
57615;SDS011;43816;52.054;-9.494;2024-03-02T00:04:59;5.87;;;5.30;;
57615;SDS011;43816;52.054;-9.494;2024-03-02T00:05:12;5.87;;;5.30;;
57615;SDS011;43816;52.054;-9.494;2024-03-02T00:05:24;5.90;;;5.30;;
57615;SDS011;43816;52.054;-9.494;2024-03-02T00:05:34;5.90;;;5.30;;
57615;SDS011;43816;52.054;-9.494;2024-03-02T00:05:48;5.80;;;5.30;;
57615;SDS011;43816;52.054;-9.494;2024-03-02T00:06:01;6.00;;;5.40;;
57615;SDS011;43816;52.054;-9.494;2024-03-02T00:06:12;5.97;;;5.37;;
57615;SDS011;43816;52.054;-9.494;2024-03-02T00:06:22;5.93;;;5.30;;
57615;SDS011;43816;52.054;-9.494;2024-03-02T00:06:32;5.50;;;5.00;;
57615;SDS011;43816;52.054;-9.494;2024-03-02T00:06:43;5.38;;;4.90;;
57615;SDS011;43816;52.054;-9.494;2024-03-02T00:06:54;5.40;;;5.00;;
57615;SDS011;43816;52.054;-9.494;2024-03-02T00:07:04;5.55;;;5.05;;
57615;SDS011;43816;52.054;-9.494;2024-03-02T00:07:16;5.70;;;5.10;;
57615;SDS011;43816;52.054;-9.494;2024-03-02T00:07:27;5.65;;;5.00;;
57615;SDS011;43816;52.054;-9.494;2024-03-02T00:07:37;5.40;;;4.90;;
57615;SDS011;43816;52.054;-9.494;2024-03-02T00:07:55;5.47;;;5.00;;
57615;SDS011;43816;52.054;-9.494;2024-03-02T00:08:07;5.78;;;5.28;;
57615;SDS011;43816;52.054;-9.494;2024-03-02T00:08:26;5.70;;;5.20;;
57615;SDS011;43816;52.054;-9.494;2024-03-02T00:08:37;5.80;;;5.30;;
57615;SDS011;43816;52.054;-9.494;2024-03-02T00:08:47;5.80;;;5.30;;
57615;SDS011;43816;52.054;-9.494;2024-03-02T00:08:58;5.60;;;5.13;;
57615;SDS011;43816;52.054;-9.494;2024-03-02T00:09:09;5.53;;;5.07;;
57615;SDS011;43816;52.054;-9.494;2024-03-02T00:09:20;5.60;;;5.10;;
57615;SDS011;43816;52.054;-9.494;2024-03-02T00:09:30;5.63;;;5.10;;
57615;SDS011;43816;52.054;-9.494;2024-03-02T00:09:41;5.53;;;5.03;;
57615;SDS011;43816;52.054;-9.494;2024-03-02T00:09:53;5.57;;;5.07;;
57615;SDS011;43816;52.054;-9.494;2024-03-02T00:10:07;5.65;;;5.15;;
57615;SDS011;43816;52.054;-9.494;2024-03-02T00:10:20;5.57;;;5.07;;
57615;SDS011;43816;52.054;-9.494;2024-03-02T00:10:49;5.70;;;5.20;;
57615;SDS011;43816;52.054;-9.494;2024-03-02T00:11:00;5.97;;;5.38;;
57615;SDS011;43816;52.054;-9.494;2024-03-02T00:11:11;6.00;;;5.40;;
57615;SDS011;43816;52.054;-9.494;2024-03-02T00:11:21;5.95;;;5.38;;
57615;SDS011;43816;52.054;-9.494;2024-03-02T00:11:34;5.70;;;5.20;;
57615;SDS011;43816;52.054;-9.494;2024-03-02T00:11:45;5.55;;;5.10;;
57615;SDS011;43816;52.054;-9.494;2024-03-02T00:11:55;5.80;;;5.20;;
57615;SDS011;43816;52.054;-9.494;2024-03-02T00:12:05;5.97;;;5.37;;
57615;SDS011;43816;52.054;-9.494;2024-03-02T00:12:16;5.82;;;5.25;;
57615;SDS011;43816;52.054;-9.494;2024-03-02T00:12:26;5.60;;;5.10;;
57615;SDS011;43816;52.054;-9.494;2024-03-02T00:12:40;5.60;;;5.10;;
57615;SDS011;43816;52.054;-9.494;2024-03-02T00:12:51;5.50;;;5.07;;
57615;SDS011;43816;52.054;-9.494;2024-03-02T00:13:01;5.50;;;5.03;;
57615;SDS011;43816;52.054;-9.494;2024-03-02T00:13:11;5.70;;;5.20;;
57615;SDS011;43816;52.054;-9.494;2024-03-02T00:13:22;5.70;;;5.20;;
57615;SDS011;43816;52.054;-9.494;2024-03-02T00:13:33;5.57;;;5.07;;
57615;SDS011;43816;52.054;-9.494;2024-03-02T00:13:43;5.63;;;5.20;;
57615;SDS011;43816;52.054;-9.494;2024-03-02T00:13:54;5.82;;;5.32;;
57615;SDS011;43816;52.054;-9.494;2024-03-02T00:14:05;5.72;;;5.22;;
57615;SDS011;43816;52.054;-9.494;2024-03-02T00:14:15;5.60;;;5.10;;
57615;SDS011;43816;52.054;-9.494;2024-03-02T00:14:28;5.68;;;5.18;;
57615;SDS011;43816;52.054;-9.494;2024-03-02T00:14:39;5.63;;;5.13;;
57615;SDS011;43816;52.054;-9.494;2024-03-02T00:14:50;5.60;;;5.10;;
57615;SDS011;43816;52.054;-9.494;2024-03-02T00:15:00;5.33;;;4.83;;
57615;SDS011;43816;52.054;-9.494;2024-03-02T00:15:48;6.10;;;5.50;;
57615;SDS011;43816;52.054;-9.494;2024-03-02T00:16:03;5.40;;;4.90;;
57615;SDS011;43816;52.054;-9.494;2024-03-02T00:16:13;5.68;;;5.18;;
57615;SDS011;43816;52.054;-9.494;2024-03-02T00:16:24;5.80;;;5.30;;
57615;SDS011;43816;52.054;-9.494;2024-03-02T00:16:42;6.05;;;5.50;;
57615;SDS011;43816;52.054;-9.494;2024-03-02T00:16:52;5.95;;;5.38;;
57615;SDS011;43816;52.054;-9.494;2024-03-02T00:17:06;5.65;;;5.15;;
57615;SDS011;43816;52.054;-9.494;2024-03-02T00:17:25;5.50;;;5.03;;
57615;SDS011;43816;52.054;-9.494;2024-03-02T00:17:35;5.40;;;4.90;;
57615;SDS011;43816;52.054;-9.494;2024-03-02T00:17:45;5.30;;;4.80;;
57615;SDS011;43816;52.054;-9.494;2024-03-02T00:18:02;5.20;;;4.80;;
57615;SDS011;43816;52.054;-9.494;2024-03-02T00:18:34;5.40;;;4.90;;
57615;SDS011;43816;52.054;-9.494;2024-03-02T00:18:44;5.03;;;4.63;;
57615;SDS011;43816;52.054;-9.494;2024-03-02T00:19:02;5.10;;;4.70;;
57615;SDS011;43816;52.054;-9.494;2024-03-02T00:19:13;5.20;;;4.78;;
57615;SDS011;43816;52.054;-9.494;2024-03-02T00:19:23;5.20;;;4.70;;
57615;SDS011;43816;52.054;-9.494;2024-03-02T00:19:34;5.10;;;4.70;;
57615;SDS011;43816;52.054;-9.494;2024-03-02T00:19:51;5.50;;;5.00;;
57615;SDS011;43816;52.054;-9.494;2024-03-02T00:20:02;5.67;;;5.17;;
57615;SDS011;43816;52.054;-9.494;2024-03-02T00:20:14;5.40;;;4.97;;
57615;SDS011;43816;52.054;-9.494;2024-03-02T00:20:31;5.30;;;4.90;;
57615;SDS011;43816;52.054;-9.494;2024-03-02T00:20:41;5.20;;;4.80;;
57615;SDS011;43816;52.054;-9.494;2024-03-02T00:20:53;5.23;;;4.83;;
57615;SDS011;43816;52.054;-9.494;2024-03-02T00:21:07;5.20;;;4.75;;
57615;SDS011;43816;52.054;-9.494;2024-03-02T00:21:18;5.55;;;4.97;;
57615;SDS011;43816;52.054;-9.494;2024-03-02T00:21:29;5.67;;;5.10;;
57615;SDS011;43816;52.054;-9.494;2024-03-02T00:21:40;5.80;;;5.20;;
57615;SDS011;43816;52.054;-9.494;2024-03-02T00:21:51;5.70;;;5.20;;
57615;SDS011;43816;52.054;-9.494;2024-03-02T00:22:01;5.28;;;4.82;;
57615;SDS011;43816;52.054;-9.494;2024-03-02T00:22:11;5.10;;;4.70;;
57615;SDS011;43816;52.054;-9.494;2024-03-02T00:22:24;5.10;;;4.70;;
57615;SDS011;43816;52.054;-9.494;2024-03-02T00:22:37;5.20;;;4.80;;
57615;SDS011;43816;52.054;-9.494;2024-03-02T00:22:47;5.30;;;4.90;;
57615;SDS011;43816;52.054;-9.494;2024-03-02T00:23:02;5.20;;;4.80;;
57615;SDS011;43816;52.054;-9.494;2024-03-02T00:23:14;5.20;;;4.80;;
57615;SDS011;43816;52.054;-9.494;2024-03-02T00:23:27;5.22;;;4.82;;
57615;SDS011;43816;52.054;-9.494;2024-03-02T00:23:39;5.18;;;4.78;;
57615;SDS011;43816;52.054;-9.494;2024-03-02T00:23:49;5.40;;;4.90;;
57615;SDS011;43816;52.054;-9.494;2024-03-02T00:24:00;5.50;;;5.00;;
57615;SDS011;43816;52.054;-9.494;2024-03-02T00:24:50;5.47;;;5.00;;
57615;SDS011;43816;52.054;-9.494;2024-03-02T00:24:53;6.03;;;5.43;;
57615;SDS011;43816;52.054;-9.494;2024-03-02T00:25:04;5.60;;;5.10;;
57615;SDS011;43816;52.054;-9.494;2024-03-02T00:25:15;5.22;;;4.82;;
57615;SDS011;43816;52.054;-9.494;2024-03-02T00:25:25;5.25;;;4.85;;
57615;SDS011;43816;52.054;-9.494;2024-03-02T00:25:37;5.03;;;4.73;;
57615;SDS011;43816;52.054;-9.494;2024-03-02T00:25:53;4.90;;;4.60;;
57615;SDS011;43816;52.054;-9.494;2024-03-02T00:26:04;4.93;;;4.63;;
57615;SDS011;43816;52.054;-9.494;2024-03-02T00:26:15;5.05;;;4.72;;
57615;SDS011;43816;52.054;-9.494;2024-03-02T00:26:26;5.17;;;4.77;;
57615;SDS011;43816;52.054;-9.494;2024-03-02T00:26:36;5.18;;;4.75;;
57615;SDS011;43816;52.054;-9.494;2024-03-02T00:26:47;5.17;;;4.73;;
57615;SDS011;43816;52.054;-9.494;2024-03-02T00:26:57;5.15;;;4.75;;
57615;SDS011;43816;52.054;-9.494;2024-03-02T00:27:07;5.23;;;4.80;;
57615;SDS011;43816;52.054;-9.494;2024-03-02T00:27:18;5.30;;;4.80;;
57615;SDS011;43816;52.054;-9.494;2024-03-02T00:27:29;5.30;;;4.80;;
57615;SDS011;43816;52.054;-9.494;2024-03-02T00:27:40;5.32;;;4.85;;
57615;SDS011;43816;52.054;-9.494;2024-03-02T00:27:50;5.50;;;5.00;;
57615;SDS011;43816;52.054;-9.494;2024-03-02T00:28:00;5.40;;;4.90;;
57615;SDS011;43816;52.054;-9.494;2024-03-02T00:28:21;5.25;;;4.82;;
57615;SDS011;43816;52.054;-9.494;2024-03-02T00:28:33;5.35;;;4.85;;
57615;SDS011;43816;52.054;-9.494;2024-03-02T00:28:44;5.40;;;4.90;;
57615;SDS011;43816;52.054;-9.494;2024-03-02T00:28:55;5.40;;;4.90;;
57615;SDS011;43816;52.054;-9.494;2024-03-02T00:29:06;5.45;;;4.95;;
57615;SDS011;43816;52.054;-9.494;2024-03-02T00:29:16;5.60;;;5.10;;
57615;SDS011;43816;52.054;-9.494;2024-03-02T00:29:27;5.38;;;4.97;;
57615;SDS011;43816;52.054;-9.494;2024-03-02T00:29:39;5.30;;;4.90;;
57615;SDS011;43816;52.054;-9.494;2024-03-02T00:29:50;5.30;;;4.90;;
57615;SDS011;43816;52.054;-9.494;2024-03-02T00:30:01;5.53;;;5.03;;
57615;SDS011;43816;52.054;-9.494;2024-03-02T00:30:57;5.32;;;4.93;;
57615;SDS011;43816;52.054;-9.494;2024-03-02T00:31:19;5.30;;;4.90;;
57615;SDS011;43816;52.054;-9.494;2024-03-02T00:31:30;5.30;;;4.90;;
57615;SDS011;43816;52.054;-9.494;2024-03-02T00:31:41;5.35;;;4.95;;
57615;SDS011;43816;52.054;-9.494;2024-03-02T00:31:52;5.23;;;4.83;;
57615;SDS011;43816;52.054;-9.494;2024-03-02T00:32:02;5.17;;;4.77;;
57615;SDS011;43816;52.054;-9.494;2024-03-02T00:32:13;5.10;;;4.70;;
57615;SDS011;43816;52.054;-9.494;2024-03-02T00:32:25;5.10;;;4.70;;
57615;SDS011;43816;52.054;-9.494;2024-03-02T00:32:36;5.20;;;4.80;;
57615;SDS011;43816;52.054;-9.494;2024-03-02T00:32:46;5.15;;;4.75;;
57615;SDS011;43816;52.054;-9.494;2024-03-02T00:32:56;5.10;;;4.70;;
57615;SDS011;43816;52.054;-9.494;2024-03-02T00:33:06;5.13;;;4.73;;
57615;SDS011;43816;52.054;-9.494;2024-03-02T00:33:17;5.30;;;4.80;;
57615;SDS011;43816;52.054;-9.494;2024-03-02T00:33:33;5.20;;;4.70;;
57615;SDS011;43816;52.054;-9.494;2024-03-02T00:33:47;5.18;;;4.70;;
57615;SDS011;43816;52.054;-9.494;2024-03-02T00:33:58;5.47;;;5.00;;
57615;SDS011;43816;52.054;-9.494;2024-03-02T00:34:13;5.30;;;4.90;;
57615;SDS011;43816;52.054;-9.494;2024-03-02T00:34:24;5.10;;;4.70;;
57615;SDS011;43816;52.054;-9.494;2024-03-02T00:34:34;5.00;;;4.60;;
57615;SDS011;43816;52.054;-9.494;2024-03-02T00:34:44;5.13;;;4.63;;
57615;SDS011;43816;52.054;-9.494;2024-03-02T00:34:55;5.23;;;4.73;;
57615;SDS011;43816;52.054;-9.494;2024-03-02T00:35:05;5.33;;;4.83;;
57615;SDS011;43816;52.054;-9.494;2024-03-02T00:35:15;5.33;;;4.93;;
57615;SDS011;43816;52.054;-9.494;2024-03-02T00:35:26;5.23;;;4.87;;
57615;SDS011;43816;52.054;-9.494;2024-03-02T00:35:36;4.97;;;4.63;;
57615;SDS011;43816;52.054;-9.494;2024-03-02T00:35:47;5.03;;;4.67;;
57615;SDS011;43816;52.054;-9.494;2024-03-02T00:35:58;5.25;;;4.75;;
57615;SDS011;43816;52.054;-9.494;2024-03-02T00:36:09;5.40;;;4.90;;
57615;SDS011;43816;52.054;-9.494;2024-03-02T00:36:26;5.40;;;4.90;;
57615;SDS011;43816;52.054;-9.494;2024-03-02T00:36:37;5.40;;;5.00;;
57615;SDS011;43816;52.054;-9.494;2024-03-02T00:36:47;5.38;;;4.95;;
57615;SDS011;43816;52.054;-9.494;2024-03-02T00:36:58;5.33;;;4.87;;
57615;SDS011;43816;52.054;-9.494;2024-03-02T00:37:08;5.45;;;4.95;;
57615;SDS011;43816;52.054;-9.494;2024-03-02T00:37:19;5.60;;;5.10;;
57615;SDS011;43816;52.054;-9.494;2024-03-02T00:37:29;5.60;;;5.10;;
57615;SDS011;43816;52.054;-9.494;2024-03-02T00:37:39;5.83;;;5.33;;
57615;SDS011;43816;52.054;-9.494;2024-03-02T00:37:50;5.80;;;5.30;;
57615;SDS011;43816;52.054;-9.494;2024-03-02T00:38:04;5.70;;;5.20;;
57615;SDS011;43816;52.054;-9.494;2024-03-02T00:38:15;5.40;;;4.90;;
57615;SDS011;43816;52.054;-9.494;2024-03-02T00:38:26;5.40;;;4.90;;
57615;SDS011;43816;52.054;-9.494;2024-03-02T00:38:47;5.40;;;5.00;;
57615;SDS011;43816;52.054;-9.494;2024-03-02T00:38:59;5.25;;;4.85;;
57615;SDS011;43816;52.054;-9.494;2024-03-02T00:39:10;5.20;;;4.80;;
57615;SDS011;43816;52.054;-9.494;2024-03-02T00:39:22;5.07;;;4.68;;
57615;SDS011;43816;52.054;-9.494;2024-03-02T00:39:32;5.03;;;4.63;;
57615;SDS011;43816;52.054;-9.494;2024-03-02T00:39:43;5.13;;;4.70;;
57615;SDS011;43816;52.054;-9.494;2024-03-02T00:39:53;5.20;;;4.80;;
57615;SDS011;43816;52.054;-9.494;2024-03-02T00:40:03;5.22;;;4.82;;
57615;SDS011;43816;52.054;-9.494;2024-03-02T00:40:15;5.18;;;4.78;;
57615;SDS011;43816;52.054;-9.494;2024-03-02T00:40:27;5.28;;;4.88;;
57615;SDS011;43816;52.054;-9.494;2024-03-02T00:40:39;5.47;;;5.00;;
57615;SDS011;43816;52.054;-9.494;2024-03-02T00:40:49;5.50;;;5.10;;
57615;SDS011;43816;52.054;-9.494;2024-03-02T00:41:04;5.50;;;5.10;;
57615;SDS011;43816;52.054;-9.494;2024-03-02T00:41:25;5.30;;;4.90;;
57615;SDS011;43816;52.054;-9.494;2024-03-02T00:41:40;5.10;;;4.70;;
57615;SDS011;43816;52.054;-9.494;2024-03-02T00:41:51;5.00;;;4.60;;
57615;SDS011;43816;52.054;-9.494;2024-03-02T00:42:01;4.83;;;4.50;;
57615;SDS011;43816;52.054;-9.494;2024-03-02T00:42:11;4.87;;;4.53;;
57615;SDS011;43816;52.054;-9.494;2024-03-02T00:42:22;5.20;;;4.80;;
57615;SDS011;43816;52.054;-9.494;2024-03-02T00:42:32;5.40;;;4.90;;
57615;SDS011;43816;52.054;-9.494;2024-03-02T00:42:42;5.33;;;4.90;;
57615;SDS011;43816;52.054;-9.494;2024-03-02T00:42:53;5.30;;;4.90;;
57615;SDS011;43816;52.054;-9.494;2024-03-02T00:43:03;5.20;;;4.80;;
57615;SDS011;43816;52.054;-9.494;2024-03-02T00:43:44;5.32;;;4.93;;
57615;SDS011;43816;52.054;-9.494;2024-03-02T00:44:07;5.05;;;4.70;;
57615;SDS011;43816;52.054;-9.494;2024-03-02T00:44:21;4.88;;;4.58;;
57615;SDS011;43816;52.054;-9.494;2024-03-02T00:44:35;4.70;;;4.32;;
57615;SDS011;43816;52.054;-9.494;2024-03-02T00:44:45;4.90;;;4.50;;
57615;SDS011;43816;52.054;-9.494;2024-03-02T00:44:56;5.17;;;4.67;;
57615;SDS011;43816;52.054;-9.494;2024-03-02T00:45:09;5.13;;;4.70;;
57615;SDS011;43816;52.054;-9.494;2024-03-02T00:45:20;5.10;;;4.68;;
57615;SDS011;43816;52.054;-9.494;2024-03-02T00:45:30;5.00;;;4.60;;
57615;SDS011;43816;52.054;-9.494;2024-03-02T00:45:40;5.05;;;4.65;;
57615;SDS011;43816;52.054;-9.494;2024-03-02T00:45:51;5.23;;;4.80;;
57615;SDS011;43816;52.054;-9.494;2024-03-02T00:46:01;5.10;;;4.70;;
57615;SDS011;43816;52.054;-9.494;2024-03-02T00:46:12;4.97;;;4.60;;
57615;SDS011;43816;52.054;-9.494;2024-03-02T00:46:23;4.72;;;4.38;;
57615;SDS011;43816;52.054;-9.494;2024-03-02T00:46:47;4.80;;;4.40;;
57615;SDS011;43816;52.054;-9.494;2024-03-02T00:46:57;4.83;;;4.43;;
57615;SDS011;43816;52.054;-9.494;2024-03-02T00:47:08;4.93;;;4.50;;
57615;SDS011;43816;52.054;-9.494;2024-03-02T00:47:19;4.73;;;4.33;;
57615;SDS011;43816;52.054;-9.494;2024-03-02T00:47:29;4.78;;;4.40;;
57615;SDS011;43816;52.054;-9.494;2024-03-02T00:47:39;4.80;;;4.40;;
57615;SDS011;43816;52.054;-9.494;2024-03-02T00:47:50;4.60;;;4.30;;
57615;SDS011;43816;52.054;-9.494;2024-03-02T00:48:00;4.78;;;4.38;;
57615;SDS011;43816;52.054;-9.494;2024-03-02T00:48:11;4.55;;;4.20;;
57615;SDS011;43816;52.054;-9.494;2024-03-02T00:48:21;4.70;;;4.30;;
57615;SDS011;43816;52.054;-9.494;2024-03-02T00:48:31;4.93;;;4.53;;
57615;SDS011;43816;52.054;-9.494;2024-03-02T00:48:45;5.00;;;4.60;;
57615;SDS011;43816;52.054;-9.494;2024-03-02T00:48:59;4.72;;;4.32;;
57615;SDS011;43816;52.054;-9.494;2024-03-02T00:49:21;4.80;;;4.40;;
57615;SDS011;43816;52.054;-9.494;2024-03-02T00:49:33;4.72;;;4.32;;
57615;SDS011;43816;52.054;-9.494;2024-03-02T00:49:45;4.85;;;4.45;;
57615;SDS011;43816;52.054;-9.494;2024-03-02T00:49:57;4.90;;;4.50;;
57615;SDS011;43816;52.054;-9.494;2024-03-02T00:50:07;5.07;;;4.60;;
57615;SDS011;43816;52.054;-9.494;2024-03-02T00:50:18;5.10;;;4.65;;
57615;SDS011;43816;52.054;-9.494;2024-03-02T00:50:28;5.05;;;4.65;;
57615;SDS011;43816;52.054;-9.494;2024-03-02T00:50:39;4.93;;;4.53;;
57615;SDS011;43816;52.054;-9.494;2024-03-02T00:50:52;4.85;;;4.45;;
57615;SDS011;43816;52.054;-9.494;2024-03-02T00:51:03;5.00;;;4.55;;
57615;SDS011;43816;52.054;-9.494;2024-03-02T00:51:14;4.70;;;4.30;;
57615;SDS011;43816;52.054;-9.494;2024-03-02T00:51:25;4.63;;;4.22;;
57615;SDS011;43816;52.054;-9.494;2024-03-02T00:51:37;4.70;;;4.30;;
57615;SDS011;43816;52.054;-9.494;2024-03-02T00:51:49;4.75;;;4.32;;
57615;SDS011;43816;52.054;-9.494;2024-03-02T00:52:01;4.88;;;4.38;;
57615;SDS011;43816;52.054;-9.494;2024-03-02T00:52:12;4.88;;;4.40;;
57615;SDS011;43816;52.054;-9.494;2024-03-02T00:52:23;5.03;;;4.53;;
57615;SDS011;43816;52.054;-9.494;2024-03-02T00:52:34;4.80;;;4.40;;
57615;SDS011;43816;52.054;-9.494;2024-03-02T00:52:45;4.77;;;4.37;;
57615;SDS011;43816;52.054;-9.494;2024-03-02T00:52:56;4.72;;;4.40;;
57615;SDS011;43816;52.054;-9.494;2024-03-02T00:53:09;4.60;;;4.30;;
57615;SDS011;43816;52.054;-9.494;2024-03-02T00:53:22;4.88;;;4.47;;
57615;SDS011;43816;52.054;-9.494;2024-03-02T00:53:33;5.07;;;4.60;;
57615;SDS011;43816;52.054;-9.494;2024-03-02T00:53:44;4.83;;;4.43;;
57615;SDS011;43816;52.054;-9.494;2024-03-02T00:53:55;4.68;;;4.18;;
57615;SDS011;43816;52.054;-9.494;2024-03-02T00:54:08;4.45;;;4.05;;
57615;SDS011;43816;52.054;-9.494;2024-03-02T00:54:21;4.28;;;3.90;;
57615;SDS011;43816;52.054;-9.494;2024-03-02T00:54:32;4.30;;;3.94;;
57615;SDS011;43816;52.054;-9.494;2024-03-02T00:54:42;4.53;;;4.23;;
57615;SDS011;43816;52.054;-9.494;2024-03-02T00:54:53;4.90;;;4.53;;
57615;SDS011;43816;52.054;-9.494;2024-03-02T00:55:07;5.10;;;4.60;;
57615;SDS011;43816;52.054;-9.494;2024-03-02T00:55:18;4.90;;;4.40;;
57615;SDS011;43816;52.054;-9.494;2024-03-02T00:55:29;4.65;;;4.25;;
57615;SDS011;43816;52.054;-9.494;2024-03-02T00:55:39;4.60;;;4.20;;
57615;SDS011;43816;52.054;-9.494;2024-03-02T00:55:49;4.60;;;4.20;;
57615;SDS011;43816;52.054;-9.494;2024-03-02T00:56:00;4.50;;;4.10;;
57615;SDS011;43816;52.054;-9.494;2024-03-02T00:56:11;4.38;;;4.07;;
57615;SDS011;43816;52.054;-9.494;2024-03-02T00:56:22;4.43;;;4.13;;
57615;SDS011;43816;52.054;-9.494;2024-03-02T00:56:33;4.65;;;4.30;;
57615;SDS011;43816;52.054;-9.494;2024-03-02T00:56:44;4.55;;;4.25;;
57615;SDS011;43816;52.054;-9.494;2024-03-02T00:56:54;4.47;;;4.18;;
57615;SDS011;43816;52.054;-9.494;2024-03-02T00:57:04;4.50;;;4.17;;
57615;SDS011;43816;52.054;-9.494;2024-03-02T00:57:15;4.22;;;3.92;;
57615;SDS011;43816;52.054;-9.494;2024-03-02T00:57:25;4.20;;;3.90;;
57615;SDS011;43816;52.054;-9.494;2024-03-02T00:57:39;4.32;;;4.03;;
57615;SDS011;43816;52.054;-9.494;2024-03-02T00:57:50;4.50;;;4.10;;
57615;SDS011;43816;52.054;-9.494;2024-03-02T00:58:00;4.70;;;4.30;;
57615;SDS011;43816;52.054;-9.494;2024-03-02T00:58:11;4.82;;;4.40;;
57615;SDS011;43816;52.054;-9.494;2024-03-02T00:58:21;5.00;;;4.50;;
57615;SDS011;43816;52.054;-9.494;2024-03-02T00:58:31;4.77;;;4.37;;
57615;SDS011;43816;52.054;-9.494;2024-03-02T00:58:41;4.65;;;4.25;;
57615;SDS011;43816;52.054;-9.494;2024-03-02T00:58:52;4.70;;;4.30;;
57615;SDS011;43816;52.054;-9.494;2024-03-02T00:59:03;4.70;;;4.30;;
57615;SDS011;43816;52.054;-9.494;2024-03-02T00:59:13;4.70;;;4.30;;
57615;SDS011;43816;52.054;-9.494;2024-03-02T00:59:23;4.40;;;4.00;;
57615;SDS011;43816;52.054;-9.494;2024-03-02T00:59:34;4.47;;;4.07;;
57615;SDS011;43816;52.054;-9.494;2024-03-02T00:59:44;4.60;;;4.10;;
57615;SDS011;43816;52.054;-9.494;2024-03-02T00:59:54;4.60;;;4.20;;
57615;SDS011;43816;52.054;-9.494;2024-03-02T01:00:05;4.57;;;4.20;;
57615;SDS011;43816;52.054;-9.494;2024-03-02T01:00:16;4.43;;;4.13;;
57615;SDS011;43816;52.054;-9.494;2024-03-02T01:00:26;4.50;;;4.20;;
57615;SDS011;43816;52.054;-9.494;2024-03-02T01:00:36;4.47;;;4.17;;
57615;SDS011;43816;52.054;-9.494;2024-03-02T01:00:47;4.60;;;4.30;;
57615;SDS011;43816;52.054;-9.494;2024-03-02T01:00:57;4.50;;;4.20;;
57615;SDS011;43816;52.054;-9.494;2024-03-02T01:01:07;4.47;;;4.17;;
57615;SDS011;43816;52.054;-9.494;2024-03-02T01:01:18;4.40;;;4.10;;
57615;SDS011;43816;52.054;-9.494;2024-03-02T01:01:28;4.45;;;4.15;;
57615;SDS011;43816;52.054;-9.494;2024-03-02T01:01:39;4.60;;;4.20;;
57615;SDS011;43816;52.054;-9.494;2024-03-02T01:01:49;4.40;;;4.00;;
57615;SDS011;43816;52.054;-9.494;2024-03-02T01:01:59;4.50;;;4.10;;
57615;SDS011;43816;52.054;-9.494;2024-03-02T01:02:10;4.55;;;4.18;;
57615;SDS011;43816;52.054;-9.494;2024-03-02T01:02:20;4.63;;;4.23;;
57615;SDS011;43816;52.054;-9.494;2024-03-02T01:02:30;4.63;;;4.23;;
57615;SDS011;43816;52.054;-9.494;2024-03-02T01:02:40;4.70;;;4.30;;
57615;SDS011;43816;52.054;-9.494;2024-03-02T01:02:51;4.60;;;4.22;;
57615;SDS011;43816;52.054;-9.494;2024-03-02T01:03:01;4.60;;;4.20;;
57615;SDS011;43816;52.054;-9.494;2024-03-02T01:03:11;4.50;;;4.10;;
57615;SDS011;43816;52.054;-9.494;2024-03-02T01:03:22;4.60;;;4.20;;
57615;SDS011;43816;52.054;-9.494;2024-03-02T01:03:32;4.40;;;4.07;;
57615;SDS011;43816;52.054;-9.494;2024-03-02T01:03:43;4.35;;;4.03;;
57615;SDS011;43816;52.054;-9.494;2024-03-02T01:03:54;4.27;;;3.90;;
57615;SDS011;43816;52.054;-9.494;2024-03-02T01:04:04;4.40;;;4.00;;
57615;SDS011;43816;52.054;-9.494;2024-03-02T01:04:15;4.40;;;4.00;;
57615;SDS011;43816;52.054;-9.494;2024-03-02T01:04:25;4.55;;;4.15;;
57615;SDS011;43816;52.054;-9.494;2024-03-02T01:04:35;4.50;;;4.10;;
57615;SDS011;43816;52.054;-9.494;2024-03-02T01:04:46;4.60;;;4.20;;
57615;SDS011;43816;52.054;-9.494;2024-03-02T01:04:56;4.60;;;4.20;;
57615;SDS011;43816;52.054;-9.494;2024-03-02T01:05:06;4.57;;;4.17;;
57615;SDS011;43816;52.054;-9.494;2024-03-02T01:05:17;4.70;;;4.30;;
57615;SDS011;43816;52.054;-9.494;2024-03-02T01:05:28;5.17;;;4.67;;
57615;SDS011;43816;52.054;-9.494;2024-03-02T01:05:41;5.18;;;4.68;;
57615;SDS011;43816;52.054;-9.494;2024-03-02T01:05:52;4.85;;;4.45;;
57615;SDS011;43816;52.054;-9.494;2024-03-02T01:06:03;4.60;;;4.20;;
57615;SDS011;43816;52.054;-9.494;2024-03-02T01:06:14;4.47;;;4.10;;
57615;SDS011;43816;52.054;-9.494;2024-03-02T01:06:25;4.35;;;4.03;;
57615;SDS011;43816;52.054;-9.494;2024-03-02T01:06:35;4.40;;;4.03;;
57615;SDS011;43816;52.054;-9.494;2024-03-02T01:06:46;4.45;;;4.05;;
57615;SDS011;43816;52.054;-9.494;2024-03-02T01:06:56;4.30;;;4.00;;
57615;SDS011;43816;52.054;-9.494;2024-03-02T01:07:06;4.33;;;4.00;;
57615;SDS011;43816;52.054;-9.494;2024-03-02T01:07:17;4.38;;;4.07;;
57615;SDS011;43816;52.054;-9.494;2024-03-02T01:07:27;4.40;;;4.10;;
57615;SDS011;43816;52.054;-9.494;2024-03-02T01:07:38;4.40;;;4.10;;
57615;SDS011;43816;52.054;-9.494;2024-03-02T01:07:48;4.50;;;4.10;;
57615;SDS011;43816;52.054;-9.494;2024-03-02T01:07:58;4.32;;;3.97;;
57615;SDS011;43816;52.054;-9.494;2024-03-02T01:08:09;4.30;;;3.90;;
57615;SDS011;43816;52.054;-9.494;2024-03-02T01:08:20;4.10;;;3.80;;
57615;SDS011;43816;52.054;-9.494;2024-03-02T01:08:31;4.27;;;3.97;;
57615;SDS011;43816;52.054;-9.494;2024-03-02T01:08:41;4.30;;;4.00;;
57615;SDS011;43816;52.054;-9.494;2024-03-02T01:08:52;4.60;;;4.20;;
57615;SDS011;43816;52.054;-9.494;2024-03-02T01:09:02;4.60;;;4.20;;
57615;SDS011;43816;52.054;-9.494;2024-03-02T01:09:12;4.45;;;4.10;;
57615;SDS011;43816;52.054;-9.494;2024-03-02T01:09:23;4.10;;;3.80;;
57615;SDS011;43816;52.054;-9.494;2024-03-02T01:09:33;4.10;;;3.80;;
57615;SDS011;43816;52.054;-9.494;2024-03-02T01:09:43;4.27;;;3.87;;
57615;SDS011;43816;52.054;-9.494;2024-03-02T01:09:54;4.27;;;3.90;;
57615;SDS011;43816;52.054;-9.494;2024-03-02T01:10:04;4.43;;;4.03;;
57615;SDS011;43816;52.054;-9.494;2024-03-02T01:10:15;4.50;;;4.10;;
57615;SDS011;43816;52.054;-9.494;2024-03-02T01:10:25;4.60;;;4.20;;
57615;SDS011;43816;52.054;-9.494;2024-03-02T01:10:35;4.60;;;4.20;;